ADDS METAR Data INFO
IDs: Format: Raw Decoded Include TAF

Data at: 0330 UTC 17 Jul 2018

METAR for:KFDY (Findlay Arpt, OH, US)
Text:KFDY 170253Z AUTO 24003KT 10SM FEW050 23/22 A2991 RMK AO2 SLP117 T02280217 53012
Temperature: 22.8°C ( 73°F)
Dewpoint: 21.7°C ( 71°F) [RH = 94%]
Pressure (altimeter):29.91 inches Hg (1013.0 mb) [Sea level pressure: 1011.7 mb]
Winds:from the WSW (240 degrees) at 3 MPH (3 knots; 1.5 m/s)
Visibility:10 or more sm (16+ km)
Ceiling:at least 12,000 feet AGL
Clouds: few clouds at 5000 feet AGL
QC Flag:automated observation with no human augmentation